createdAt,value
2019-04-29T00:00:40.292Z,97.7340
2019-04-29T00:01:43.283Z,97.6043
2019-04-29T00:02:45.353Z,97.6379
2019-04-29T00:03:48.303Z,97.4502
2019-04-29T00:04:51.312Z,97.2976
2019-04-29T00:05:54.304Z,97.7645
2019-04-29T00:06:57.281Z,97.6837
2019-04-29T00:08:00.353Z,97.1969
2019-04-29T00:09:03.296Z,97.4304
2019-04-29T00:10:06.293Z,97.4212
2019-04-29T00:11:09.283Z,97.2992
2019-04-29T00:12:12.327Z,97.4777
2019-04-29T00:13:15.277Z,97.6959
2019-04-29T00:14:18.280Z,97.4960
2019-04-29T00:15:21.304Z,97.8149
2019-04-29T00:16:24.317Z,97.6135
2019-04-29T00:17:27.273Z,97.6928
2019-04-29T00:18:30.308Z,97.6135
2019-04-29T00:19:36.100Z,97.6547
2019-04-29T00:20:39.266Z,97.9995
2019-04-29T00:21:41.299Z,97.6410
2019-04-29T00:22:44.277Z,97.4807
2019-04-29T00:23:47.294Z,97.5006
2019-04-29T00:24:50.311Z,97.7874
2019-04-29T00:25:53.323Z,97.6501
2019-04-29T00:26:56.293Z,97.6379
2019-04-29T00:27:59.317Z,97.6196
2019-04-29T00:29:02.339Z,97.9339
2019-04-29T00:30:05.323Z,97.6959
2019-04-29T00:31:08.322Z,97.8119
2019-04-29T00:32:11.278Z,97.7829
2019-04-29T00:33:14.291Z,97.6471
2019-04-29T00:34:17.354Z,97.3266
2019-04-29T00:35:20.313Z,97.4624
2019-04-29T00:36:23.277Z,97.5463
2019-04-29T00:37:26.272Z,97.3434
2019-04-29T00:38:29.330Z,97.4075
2019-04-29T00:39:32.335Z,97.3388
2019-04-29T00:40:35.311Z,97.4990
2019-04-29T00:41:38.278Z,97.4136
2019-04-29T00:42:41.278Z,96.9467
2019-04-29T00:43:44.359Z,97.5357
2019-04-29T00:44:47.308Z,97.7508
2019-04-29T00:45:50.300Z,97.6699
2019-04-29T00:46:53.281Z,97.3999
2019-04-29T00:47:56.338Z,97.3037
2019-04-29T00:48:59.283Z,97.3709
2019-04-29T00:50:02.347Z,97.3632
2019-04-29T00:51:05.347Z,97.1099
2019-04-29T00:52:08.309Z,97.1939
2019-04-29T00:53:11.289Z,97.2427
2019-04-29T00:54:14.303Z,97.3037
2019-04-29T00:55:17.345Z,97.4166
2019-04-29T00:56:20.270Z,97.7066
2019-04-29T00:57:23.302Z,97.3541
2019-04-29T00:58:26.263Z,97.4212
2019-04-29T00:59:29.303Z,97.7157
2019-04-29T01:00:32.318Z,97.2198
2019-04-29T01:01:35.319Z,97.2625
2019-04-29T01:02:38.283Z,97.1298
2019-04-29T01:03:41.405Z,96.7483
2019-04-29T01:04:44.309Z,97.2107
2019-04-29T01:05:47.338Z,97.1115
2019-04-29T01:06:50.276Z,97.3983
2019-04-29T01:07:53.325Z,97.4762
2019-04-29T01:08:56.299Z,97.8256
2019-04-29T01:09:58.288Z,98.2727
2019-04-29T01:11:01.361Z,97.8515
2019-04-29T01:12:04.327Z,97.7783
2019-04-29T01:13:07.317Z,97.8531
2019-04-29T01:14:10.309Z,98.0346
2019-04-29T01:15:13.311Z,98.0804
2019-04-29T01:16:16.345Z,98.1582
2019-04-29T01:17:19.284Z,98.1094
2019-04-29T01:18:22.305Z,98.0224
2019-04-29T01:19:25.266Z,97.9019
2019-04-29T01:20:28.278Z,97.7829
2019-04-29T01:21:30.333Z,97.7615
2019-04-29T01:22:33.297Z,97.4640
2019-04-29T01:23:36.301Z,97.8027
2019-04-29T01:24:39.333Z,97.8943
2019-04-29T01:25:42.269Z,97.5677
2019-04-29T01:26:45.304Z,97.4304
2019-04-29T01:27:48.312Z,97.3251
2019-04-29T01:28:51.288Z,97.3205
2019-04-29T01:29:54.295Z,97.7066
2019-04-29T01:30:57.295Z,97.5189
2019-04-29T01:32:00.333Z,97.3800
2019-04-29T01:33:03.310Z,97.2076
2019-04-29T01:34:06.253Z,97.2992
2019-04-29T01:35:09.283Z,97.1756
2019-04-29T01:36:12.338Z,97.3709
2019-04-29T01:37:15.317Z,97.6410
2019-04-29T01:38:18.283Z,97.4258
2019-04-29T01:39:21.298Z,96.8551
2019-04-29T01:40:24.275Z,97.1023
2019-04-29T01:41:27.287Z,97.7295
2019-04-29T01:42:30.306Z,97.2808
2019-04-29T01:43:33.318Z,97.3083
2019-04-29T01:44:36.273Z,97.6516
2019-04-29T01:45:39.305Z,97.8119
2019-04-29T01:46:42.317Z,97.7142
2019-04-29T01:47:45.340Z,97.8347
2019-04-29T01:48:48.305Z,97.6959
2019-04-29T01:49:51.315Z,98.2330
2019-04-29T01:50:54.290Z,97.7783
2019-04-29T01:51:57.302Z,97.7142
2019-04-29T01:53:00.326Z,97.2793
2019-04-29T01:54:03.287Z,97.0550
2019-04-29T01:55:08.327Z,97.2305
2019-04-29T01:56:11.280Z,96.6674
2019-04-29T01:57:13.292Z,96.8811
2019-04-29T01:58:16.347Z,96.9589
2019-04-29T01:59:19.288Z,97.0413
2019-04-29T02:00:22.327Z,97.0199
2019-04-29T02:01:25.314Z,97.2900
2019-04-29T02:02:28.290Z,97.5769
2019-04-29T02:03:31.310Z,97.4090
2019-04-29T02:04:34.345Z,97.5631
2019-04-29T02:05:37.287Z,97.2335
2019-04-29T02:06:40.302Z,96.6751
2019-04-29T02:07:43.290Z,97.0871
2019-04-29T02:08:46.337Z,96.8505
2019-04-29T02:09:49.285Z,97.2625
2019-04-29T02:10:52.282Z,97.3266
2019-04-29T02:11:55.283Z,97.4273
2019-04-29T02:12:58.279Z,97.7325
2019-04-29T02:14:00.343Z,98.0819
2019-04-29T02:15:03.296Z,97.9721
2019-04-29T02:16:06.274Z,98.3047
2019-04-29T02:17:09.298Z,98.4970
2019-04-29T02:18:12.261Z,98.5016
2019-04-29T02:19:15.346Z,98.6816
2019-04-29T02:20:18.270Z,98.6206
2019-04-29T02:21:21.329Z,98.5946
2019-04-29T02:22:24.280Z,98.3978
2019-04-29T02:23:27.325Z,98.1186
2019-04-29T02:24:30.312Z,98.0941
2019-04-29T02:25:33.289Z,97.9629
2019-04-29T02:26:36.278Z,97.7569
2019-04-29T02:27:40.325Z,97.9858
2019-04-29T02:28:43.300Z,97.8973
2019-04-29T02:29:46.302Z,97.8119
2019-04-29T02:30:49.333Z,98.1231
2019-04-29T02:31:52.308Z,97.8973
2019-04-29T02:32:55.303Z,97.9477
2019-04-29T02:33:58.390Z,97.9065
2019-04-29T02:35:01.329Z,98.5489
2019-04-29T02:36:04.320Z,98.0133
2019-04-29T02:37:07.276Z,98.4970
2019-04-29T02:38:10.299Z,98.2101
2019-04-29T02:39:13.296Z,98.5885
2019-04-29T02:40:15.343Z,98.7396
2019-04-29T02:41:18.298Z,98.6068
2019-04-29T02:42:21.286Z,98.6755
2019-04-29T02:43:24.267Z,98.7396
2019-04-29T02:44:27.284Z,98.9273
2019-04-29T02:45:30.347Z,99.0524
2019-04-29T02:46:33.286Z,98.9822
2019-04-29T02:47:36.311Z,99.0372
2019-04-29T02:48:41.283Z,99.2813
2019-04-29T02:49:44.316Z,99.0616
2019-04-29T02:50:47.301Z,99.0372
2019-04-29T02:51:50.331Z,99.0234
2019-04-29T02:52:53.268Z,99.2294
2019-04-29T02:53:56.324Z,99.2813
2019-04-29T02:54:59.264Z,99.4049
2019-04-29T02:56:02.329Z,99.3500
2019-04-29T02:57:05.359Z,99.2660
2019-04-29T02:58:12.270Z,99.2630
2019-04-29T02:59:15.307Z,99.2081
2019-04-29T03:00:17.334Z,99.2950
2019-04-29T03:01:20.336Z,99.5331
2019-04-29T03:02:23.268Z,99.5422
2019-04-29T03:03:26.307Z,99.5270
2019-04-29T03:04:29.275Z,99.7162
2019-04-29T03:05:31.290Z,99.5743
2019-04-29T03:06:34.340Z,99.5102
2019-04-29T03:07:37.281Z,99.5041
2019-04-29T03:08:40.317Z,99.3500
2019-04-29T03:09:43.307Z,99.4720
2019-04-29T03:10:46.303Z,99.4873
2019-04-29T03:11:48.327Z,99.3637
2019-04-29T03:12:51.281Z,99.3133
2019-04-29T03:13:54.280Z,99.4369
2019-04-29T03:14:57.280Z,99.4919
2019-04-29T03:16:00.282Z,99.5956
2019-04-29T03:17:03.283Z,99.5178
2019-04-29T03:18:06.290Z,99.7055
2019-04-29T03:19:09.297Z,99.6185
2019-04-29T03:20:13.368Z,99.6246
2019-04-29T03:21:16.298Z,99.6872
2019-04-29T03:22:19.335Z,99.6704
2019-04-29T03:23:22.294Z,99.6139
2019-04-29T03:24:25.271Z,99.6872
2019-04-29T03:25:28.277Z,99.7940
2019-04-29T03:26:31.277Z,99.6277
2019-04-29T03:27:34.323Z,99.4507
2019-04-29T03:28:37.281Z,99.3362
2019-04-29T03:29:40.308Z,99.0433
2019-04-29T03:30:43.309Z,99.0600
2019-04-29T03:31:46.294Z,98.9929
2019-04-29T03:32:49.346Z,99.2523
2019-04-29T03:33:52.301Z,99.3042
2019-04-29T03:34:55.300Z,99.2218
2019-04-29T03:35:58.305Z,99.1424
2019-04-29T03:37:00.351Z,99.1577
2019-04-29T03:38:03.298Z,99.1699
2019-04-29T03:39:06.311Z,99.1562
2019-04-29T03:40:09.338Z,98.8083
2019-04-29T03:41:12.323Z,98.5351
2019-04-29T03:42:15.288Z,98.6496
2019-04-29T03:43:17.416Z,98.4161
2019-04-29T03:44:20.286Z,98.5946
2019-04-29T03:45:23.274Z,98.9929
2019-04-29T03:46:26.317Z,98.9960
2019-04-29T03:47:29.284Z,99.1882
2019-04-29T03:48:32.307Z,98.8037
2019-04-29T03:49:35.304Z,98.8357
2019-04-29T03:50:38.294Z,99.0570
2019-04-29T03:51:41.334Z,98.9654
2019-04-29T03:52:44.290Z,99.2264
2019-04-29T03:53:47.309Z,99.4949
2019-04-29T03:54:50.303Z,99.6109
2019-04-29T03:55:53.319Z,99.6429
2019-04-29T03:56:56.265Z,99.7574
2019-04-29T03:57:59.310Z,99.5331
2019-04-29T03:59:02.316Z,99.2615
2019-04-29T04:00:06.345Z,99.1699
2019-04-29T04:01:09.288Z,99.4537
2019-04-29T04:02:12.316Z,99.4995
2019-04-29T04:03:15.321Z,99.5926
2019-04-29T04:04:18.306Z,99.6231
2019-04-29T04:05:21.306Z,99.5087
2019-04-29T04:06:24.288Z,99.4186
2019-04-29T04:07:27.344Z,99.3591
2019-04-29T04:08:30.310Z,99.4598
2019-04-29T04:09:33.331Z,99.4507
2019-04-29T04:10:36.289Z,99.3347
2019-04-29T04:11:39.330Z,99.4034
2019-04-29T04:12:42.289Z,99.2721
2019-04-29T04:13:45.301Z,99.1196
2019-04-29T04:14:48.330Z,98.8632
2019-04-29T04:15:51.285Z,99.0341
2019-04-29T04:16:53.284Z,98.9929
2019-04-29T04:17:56.314Z,98.9456
2019-04-29T04:18:59.291Z,98.8998
2019-04-29T04:20:02.350Z,98.4970
2019-04-29T04:21:05.299Z,98.5580
2019-04-29T04:22:08.311Z,98.3871
2019-04-29T04:23:11.271Z,98.2361
2019-04-29T04:24:14.304Z,98.3520
2019-04-29T04:25:17.348Z,98.3703
2019-04-29T04:26:20.318Z,98.0301
2019-04-29T04:27:23.276Z,98.2696
2019-04-29T04:28:26.315Z,98.0850
2019-04-29T04:29:29.324Z,97.9706
2019-04-29T04:30:32.334Z,97.8836
2019-04-29T04:31:35.275Z,97.8027
2019-04-29T04:32:38.273Z,97.8286
2019-04-29T04:33:41.323Z,97.6104
2019-04-29T04:34:44.351Z,97.1618
2019-04-29T04:35:47.303Z,97.1984
2019-04-29T04:36:50.323Z,97.2610
2019-04-29T04:37:52.307Z,97.3495
2019-04-29T04:38:55.281Z,97.6425
2019-04-29T04:39:57.309Z,97.7691
2019-04-29T04:41:00.386Z,97.5372
2019-04-29T04:42:03.287Z,97.4762
2019-04-29T04:43:06.352Z,97.1389
2019-04-29T04:44:09.272Z,97.0459
2019-04-29T04:45:11.309Z,97.1374
2019-04-29T04:46:14.317Z,97.2396
2019-04-29T04:47:17.303Z,97.4456
2019-04-29T04:48:20.272Z,97.3999
2019-04-29T04:49:23.320Z,97.5357
2019-04-29T04:50:26.369Z,97.6059
2019-04-29T04:51:29.303Z,97.2671
2019-04-29T04:52:32.279Z,97.2061
2019-04-29T04:53:35.304Z,96.9512
2019-04-29T04:54:38.337Z,97.0382
2019-04-29T04:55:41.351Z,97.1710
2019-04-29T04:56:44.323Z,97.2702
2019-04-29T04:57:47.287Z,97.3861
2019-04-29T04:58:50.284Z,97.5097
2019-04-29T04:59:53.316Z,97.1923
2019-04-29T05:00:56.285Z,97.5006
2019-04-29T05:01:59.344Z,97.1664
2019-04-29T05:03:02.283Z,96.8856
2019-04-29T05:04:05.296Z,96.3317
2019-04-29T05:05:08.299Z,96.6155
2019-04-29T05:06:11.342Z,96.4523
2019-04-29T05:07:14.302Z,96.5240
2019-04-29T05:08:17.277Z,96.2554
2019-04-29T05:09:20.326Z,96.2509
2019-04-29T05:10:23.272Z,95.9716
2019-04-29T05:11:26.355Z,95.9533
2019-04-29T05:12:29.293Z,96.0449
2019-04-29T05:13:32.304Z,95.7107
2019-04-29T05:14:35.303Z,95.4940
2019-04-29T05:15:38.300Z,95.4482
2019-04-29T05:16:41.297Z,95.3857
2019-04-29T05:17:44.280Z,95.2300
2019-04-29T05:18:47.310Z,95.2575
2019-04-29T05:19:50.262Z,95.2438
2019-04-29T05:20:53.316Z,95.0286
2019-04-29T05:21:55.366Z,95.3887
2019-04-29T05:22:58.313Z,95.2194
2019-04-29T05:24:01.294Z,94.9859
2019-04-29T05:25:04.315Z,95.0637
2019-04-29T05:26:07.298Z,94.9264
2019-04-29T05:27:10.320Z,94.9447
2019-04-29T05:28:13.320Z,94.9920
2019-04-29T05:29:16.286Z,94.5190
2019-04-29T05:30:18.343Z,94.7387
2019-04-29T05:31:21.316Z,95.2377
2019-04-29T05:32:24.375Z,94.7021
2019-04-29T05:33:27.302Z,94.8898
2019-04-29T05:34:30.284Z,94.7173
2019-04-29T05:35:33.310Z,95.1370
2019-04-29T05:36:38.187Z,94.5251
2019-04-29T05:37:42.343Z,94.3511
2019-04-29T05:38:45.285Z,94.6990
2019-04-29T05:39:48.296Z,94.8409
2019-04-29T05:40:51.287Z,94.6349
2019-04-29T05:41:54.311Z,94.8455
2019-04-29T05:42:57.297Z,94.7250
2019-04-29T05:44:00.284Z,94.7158
2019-04-29T05:45:03.284Z,94.6517
2019-04-29T05:46:07.554Z,94.1207
2019-04-29T05:47:11.302Z,93.7881
2019-04-29T05:48:14.328Z,93.4218
2019-04-29T05:49:17.341Z,92.9534
2019-04-29T05:50:20.307Z,93.2525
2019-04-29T05:51:27.178Z,92.9870
2019-04-29T05:52:34.654Z,92.5277
2019-04-29T05:53:39.350Z,92.9641
2019-04-29T05:54:42.278Z,93.1838
2019-04-29T05:55:45.335Z,92.7443
2019-04-29T05:56:50.279Z,92.0851
2019-04-29T05:57:55.883Z,91.8822
2019-04-29T05:59:01.351Z,91.7861
2019-04-29T06:00:04.304Z,92.3445
2019-04-29T06:01:07.367Z,92.6162
2019-04-29T06:02:10.285Z,92.2988
2019-04-29T06:03:13.313Z,92.5841
2019-04-29T06:04:18.194Z,92.3812
2019-04-29T06:05:21.340Z,91.8517
2019-04-29T06:06:24.299Z,91.6716
2019-04-29T06:07:27.321Z,91.2093
2019-04-29T06:08:34.323Z,91.3939
2019-04-29T06:09:38.331Z,91.0872
2019-04-29T06:10:42.102Z,91.7647
2019-04-29T06:11:45.302Z,92.0836
2019-04-29T06:12:48.285Z,91.5572
2019-04-29T06:13:51.281Z,92.0302
2019-04-29T06:14:54.348Z,91.3329
2019-04-29T06:15:57.296Z,90.1198
2019-04-29T06:17:02.837Z,90.6706
2019-04-29T06:18:08.273Z,90.5821
2019-04-29T06:19:11.301Z,90.1534
2019-04-29T06:20:17.954Z,90.1930
2019-04-29T06:21:22.315Z,90.3670
2019-04-29T06:22:25.277Z,90.3807
2019-04-29T06:23:28.307Z,90.9911
2019-04-29T06:24:31.319Z,90.7195
2019-04-29T06:25:34.330Z,89.2363
2019-04-29T06:26:37.331Z,90.4234
2019-04-29T06:27:40.294Z,90.1350
2019-04-29T06:28:42.346Z,90.6661
2019-04-29T06:29:45.325Z,91.0964
2019-04-29T06:30:50.258Z,91.5724
2019-04-29T06:31:55.307Z,91.4702
2019-04-29T06:32:58.378Z,91.2734
2019-04-29T06:34:05.238Z,91.3390
2019-04-29T06:35:10.693Z,90.8354
2019-04-29T06:36:17.316Z,90.8751
2019-04-29T06:37:20.309Z,90.6279
2019-04-29T06:38:23.314Z,90.6554
2019-04-29T06:39:26.293Z,90.9682
2019-04-29T06:40:30.728Z,90.8217
2019-04-29T06:41:40.676Z,90.1534
2019-04-29T06:42:45.326Z,89.8238
2019-04-29T06:43:48.284Z,89.6269
2019-04-29T06:44:51.312Z,90.0252
2019-04-29T06:45:54.346Z,89.8726
2019-04-29T06:46:57.311Z,89.6681
2019-04-29T06:47:59.375Z,88.0323
2019-04-29T06:49:10.024Z,88.5924
2019-04-29T06:50:11.325Z,88.9845
2019-04-29T06:51:14.269Z,88.6824
2019-04-29T06:52:17.290Z,88.5466
2019-04-29T06:53:21.375Z,88.3757
2019-04-29T06:54:26.324Z,87.0665
2019-04-29T06:55:29.331Z,87.0314
2019-04-29T06:56:32.301Z,87.6295
2019-04-29T06:57:35.297Z,87.2831
2019-04-29T06:58:38.547Z,87.1641
2019-04-29T06:59:42.900Z,87.3091
2019-04-29T07:00:51.068Z,86.5721
2019-04-29T07:01:54.317Z,87.1641
2019-04-29T07:02:57.310Z,87.5975
2019-04-29T07:04:02.355Z,87.4876
2019-04-29T07:05:05.291Z,85.5375
2019-04-29T07:06:08.356Z,85.9556
2019-04-29T07:07:11.301Z,86.2333
2019-04-29T07:08:14.269Z,86.7658
2019-04-29T07:09:17.294Z,85.8488
2019-04-29T07:10:21.617Z,86.0365
2019-04-29T07:11:27.349Z,86.2974
2019-04-29T07:12:30.313Z,86.9764
2019-04-29T07:13:33.307Z,85.3559
2019-04-29T07:14:38.607Z,85.7908
2019-04-29T07:15:43.433Z,85.9556
2019-04-29T07:16:50.340Z,85.4780
2019-04-29T07:17:53.320Z,86.4439
2019-04-29T07:18:56.274Z,86.6285
2019-04-29T07:20:02.038Z,86.2699
2019-04-29T07:21:07.437Z,86.2669
2019-04-29T07:22:14.340Z,86.5324
2019-04-29T07:23:17.380Z,86.5690
2019-04-29T07:24:20.563Z,85.0980
2019-04-29T07:25:24.753Z,86.1875
2019-04-29T07:26:31.265Z,85.1041
2019-04-29T07:27:40.438Z,85.9693
2019-04-29T07:28:42.304Z,86.0883
2019-04-29T07:29:45.305Z,84.5136
2019-04-29T07:31:01.224Z,84.4572
2019-04-29T07:31:56.301Z,84.9195
2019-04-29T07:33:00.413Z,84.4068
2019-04-29T07:34:03.298Z,84.9607
2019-04-29T07:35:09.928Z,84.6357
2019-04-29T07:36:14.310Z,84.3015
2019-04-29T07:37:17.352Z,84.3488
2019-04-29T07:38:20.337Z,85.0401
2019-04-29T07:39:22.353Z,84.1276
2019-04-29T07:40:25.323Z,83.9963
2019-04-29T07:41:30.361Z,83.3585
2019-04-29T07:42:33.392Z,83.5599
2019-04-29T07:43:38.465Z,84.5441
2019-04-29T07:44:44.529Z,84.3717
2019-04-29T07:45:47.312Z,85.0751
2019-04-29T07:46:57.046Z,84.5121
2019-04-29T07:48:01.702Z,85.1118
2019-04-29T07:49:06.350Z,85.3086
2019-04-29T07:50:09.382Z,86.3890
2019-04-29T07:51:12.332Z,84.7471
2019-04-29T07:52:16.162Z,85.7023
2019-04-29T07:53:20.885Z,85.5528
2019-04-29T07:54:27.310Z,85.2811
2019-04-29T07:55:30.875Z,85.1163
2019-04-29T07:56:37.910Z,84.3168
2019-04-29T07:57:43.306Z,83.9094
2019-04-29T07:58:48.562Z,84.1062
2019-04-29T07:59:51.325Z,83.7674
2019-04-29T08:00:56.237Z,84.6922
2019-04-29T08:01:59.885Z,85.6443
2019-04-29T08:03:04.345Z,84.0085
2019-04-29T08:04:07.287Z,84.2939
2019-04-29T08:05:10.330Z,84.8615
2019-04-29T08:06:13.291Z,85.9724
2019-04-29T08:07:16.309Z,85.2445
2019-04-29T08:08:21.332Z,86.8208
2019-04-29T08:09:25.328Z,85.2003
2019-04-29T08:10:29.744Z,85.8213
2019-04-29T08:11:33.301Z,84.5823
2019-04-29T08:12:36.313Z,84.4404
2019-04-29T08:13:39.285Z,85.9815
2019-04-29T08:14:42.298Z,85.6214
2019-04-29T08:15:45.310Z,85.5787
2019-04-29T08:16:48.321Z,85.5146
2019-04-29T08:17:55.493Z,86.2211
2019-04-29T08:18:59.296Z,84.3397
2019-04-29T08:20:05.163Z,84.1978
2019-04-29T08:21:10.273Z,84.5579
2019-04-29T08:22:18.364Z,85.5802
2019-04-29T08:23:21.315Z,85.1957
2019-04-29T08:24:23.323Z,85.0263
2019-04-29T08:25:27.181Z,84.6037
2019-04-29T08:26:33.657Z,85.1820
2019-04-29T08:27:40.621Z,84.2191
2019-04-29T08:28:44.344Z,85.1591
2019-04-29T08:29:47.287Z,85.0340
2019-04-29T08:30:50.316Z,84.8692
2019-04-29T08:31:57.365Z,83.7430
2019-04-29T08:33:01.349Z,84.1474
2019-04-29T08:34:04.323Z,84.6449
2019-04-29T08:35:07.309Z,84.8783
2019-04-29T08:36:10.308Z,84.0681
2019-04-29T08:37:12.303Z,84.5258
2019-04-29T08:38:15.371Z,84.1962
2019-04-29T08:39:18.299Z,83.9002
2019-04-29T08:40:21.352Z,82.1103
2019-04-29T08:41:28.563Z,83.2914
2019-04-29T08:42:32.311Z,83.0579
2019-04-29T08:43:35.295Z,82.7192
2019-04-29T08:44:38.296Z,83.7934
2019-04-29T08:45:41.331Z,83.0014
2019-04-29T08:46:51.375Z,82.2705
2019-04-29T08:47:52.350Z,81.8814
2019-04-29T08:48:55.337Z,79.4720
2019-04-29T08:49:58.342Z,81.8204
2019-04-29T08:51:01.300Z,80.4212
2019-04-29T08:52:04.323Z,79.7101
2019-04-29T08:53:06.351Z,80.6806
2019-04-29T08:54:09.357Z,78.8998
2019-04-29T08:55:12.341Z,77.1527
2019-04-29T08:56:15.283Z,76.0983
2019-04-29T08:57:18.365Z,76.8307
2019-04-29T08:58:21.315Z,75.8694
2019-04-29T08:59:24.902Z,76.7224
2019-04-29T09:00:29.273Z,73.7087
2019-04-29T09:01:34.095Z,75.2422
2019-04-29T09:02:41.438Z,70.5180
2019-04-29T09:03:47.333Z,70.0862
2019-04-29T09:04:53.819Z,71.7769
2019-04-29T09:06:05.038Z,71.7311
2019-04-29T09:07:12.513Z,71.6121
2019-04-29T09:08:13.669Z,71.2902
2019-04-29T09:09:28.404Z,64.6494
2019-04-29T09:10:25.334Z,62.9679
2019-04-29T09:11:28.358Z,62.4140
2019-04-29T09:12:31.320Z,62.0844
2019-04-29T09:13:36.400Z,59.7681
2019-04-29T09:14:39.280Z,66.0273
2019-04-29T09:15:42.354Z,67.8126
2019-04-29T09:16:45.320Z,67.2572
2019-04-29T09:17:48.356Z,68.6900
2019-04-29T09:18:51.325Z,70.7729
2019-04-29T09:19:54.339Z,65.3574
2019-04-29T09:20:57.301Z,66.9108
2019-04-29T09:22:00.318Z,67.5654
2019-04-29T09:23:03.392Z,69.3080
2019-04-29T09:24:06.319Z,70.0145
2019-04-29T09:25:09.326Z,72.2469
2019-04-29T09:26:12.330Z,71.2413
2019-04-29T09:27:15.315Z,68.3391
2019-04-29T09:28:27.024Z,70.3563
2019-04-29T09:29:26.337Z,70.6355
2019-04-29T09:30:29.286Z,70.3441
2019-04-29T09:31:32.325Z,70.9377
2019-04-29T09:32:38.236Z,71.7678
2019-04-29T09:33:44.274Z,71.8166
2019-04-29T09:34:51.349Z,72.1340
2019-04-29T09:35:54.275Z,71.3268
2019-04-29T09:36:57.339Z,71.7678
2019-04-29T09:38:00.284Z,72.3110
2019-04-29T09:39:03.333Z,72.3949
2019-04-29T09:40:06.298Z,74.7188
2019-04-29T09:41:09.311Z,74.4213
2019-04-29T09:42:13.195Z,74.7784
2019-04-29T09:43:21.368Z,74.6380
2019-04-29T09:44:26.385Z,74.0566
2019-04-29T09:45:29.291Z,72.8618
2019-04-29T09:46:34.465Z,71.9631
2019-04-29T09:47:38.290Z,72.5719
2019-04-29T09:48:40.323Z,73.0037
2019-04-29T09:49:43.315Z,72.1462
2019-04-29T09:50:46.322Z,68.5588
2019-04-29T09:51:49.363Z,66.3249
2019-04-29T09:52:52.336Z,65.5238
2019-04-29T09:53:55.335Z,63.3494
2019-04-29T09:54:59.523Z,64.1443
2019-04-29T09:56:06.299Z,63.8758
2019-04-29T09:57:09.302Z,64.6265
2019-04-29T09:58:12.314Z,67.1794
2019-04-29T09:59:15.310Z,67.0390
2019-04-29T10:00:18.304Z,65.7923
2019-04-29T10:01:21.304Z,67.3259
2019-04-29T10:02:26.357Z,67.8584
2019-04-29T10:03:32.298Z,69.2088
2019-04-29T10:04:35.310Z,69.7673
2019-04-29T10:05:38.314Z,70.1091
2019-04-29T10:06:41.337Z,69.4102
2019-04-29T10:07:46.373Z,69.1844
2019-04-29T10:08:50.369Z,68.8655
2019-04-29T10:09:57.305Z,68.6488
2019-04-29T10:11:00.319Z,67.7241
2019-04-29T10:12:03.312Z,67.3579
2019-04-29T10:13:06.299Z,66.9734
2019-04-29T10:14:09.341Z,66.5400
2019-04-29T10:15:12.296Z,65.8991
2019-04-29T10:16:15.349Z,67.0802
2019-04-29T10:17:18.335Z,67.6936
2019-04-29T10:18:25.159Z,66.4622
2019-04-29T10:19:29.352Z,67.9271
2019-04-29T10:20:32.300Z,66.8360
2019-04-29T10:21:35.365Z,68.1056
2019-04-29T10:22:38.295Z,68.3665
2019-04-29T10:23:41.318Z,67.9255
2019-04-29T10:24:44.297Z,68.3986
2019-04-29T10:25:47.302Z,68.0369
2019-04-29T10:26:50.396Z,66.7918
2019-04-29T10:27:53.298Z,65.8579
2019-04-29T10:28:56.339Z,65.2308
2019-04-29T10:29:59.322Z,63.8300
2019-04-29T10:31:02.357Z,62.7985
2019-04-29T10:32:06.847Z,64.4297
2019-04-29T10:33:12.862Z,64.7990
2019-04-29T10:34:19.309Z,63.3570
2019-04-29T10:35:22.311Z,65.4551
2019-04-29T10:36:26.262Z,65.7847
2019-04-29T10:37:31.460Z,65.0050
2019-04-29T10:38:40.228Z,64.1413
2019-04-29T10:39:43.306Z,65.1011
2019-04-29T10:40:46.390Z,66.4103
2019-04-29T10:41:49.323Z,66.0487
2019-04-29T10:42:52.368Z,67.0436
2019-04-29T10:43:55.599Z,66.7002
2019-04-29T10:44:59.334Z,66.5431
2019-04-29T10:46:02.307Z,66.3600
2019-04-29T10:47:05.326Z,65.7755
2019-04-29T10:48:08.338Z,65.4002
2019-04-29T10:49:11.349Z,65.0233
2019-04-29T10:50:15.552Z,63.9673
2019-04-29T10:51:23.305Z,66.6117
2019-04-29T10:52:28.324Z,68.0079
2019-04-29T10:53:31.340Z,63.7522
2019-04-29T10:54:34.285Z,64.1855
2019-04-29T10:55:37.295Z,64.1871
2019-04-29T10:56:41.074Z,63.7964
2019-04-29T10:57:44.864Z,63.3799
2019-04-29T10:58:52.382Z,64.4709
2019-04-29T10:59:55.298Z,63.2486
2019-04-29T11:00:58.472Z,63.1937
2019-04-29T11:02:05.092Z,64.2420
2019-04-29T11:03:09.305Z,64.3000
2019-04-29T11:04:12.391Z,63.9338
2019-04-29T11:05:15.331Z,63.7415
2019-04-29T11:06:18.314Z,62.8168
2019-04-29T11:07:26.509Z,64.3107
2019-04-29T11:08:29.372Z,65.1713
2019-04-29T11:09:32.301Z,64.7028
2019-04-29T11:10:35.341Z,66.2318
2019-04-29T11:11:38.276Z,65.7206
2019-04-29T11:12:41.320Z,64.0162
2019-04-29T11:13:48.393Z,65.5543
2019-04-29T11:14:52.305Z,65.7481
2019-04-29T11:15:55.326Z,65.7755
2019-04-29T11:16:58.311Z,65.2628
2019-04-29T11:18:03.516Z,66.4164
2019-04-29T11:19:07.333Z,65.0965
2019-04-29T11:20:11.132Z,64.2908
2019-04-29T11:21:18.284Z,63.9796
2019-04-29T11:22:21.344Z,63.1373
2019-04-29T11:23:24.303Z,61.9516
2019-04-29T11:24:27.355Z,61.2192
2019-04-29T11:25:30.327Z,61.8692
2019-04-29T11:26:33.256Z,60.1267
2019-04-29T11:27:36.346Z,59.2279
2019-04-29T11:28:39.298Z,57.3800
2019-04-29T11:29:44.427Z,58.8525
2019-04-29T11:30:49.554Z,59.1455
2019-04-29T11:31:54.149Z,61.7288
2019-04-29T11:33:00.115Z,59.6414
2019-04-29T11:34:05.501Z,59.1562
2019-04-29T11:35:08.363Z,57.6043
2019-04-29T11:36:11.321Z,60.4013
2019-04-29T11:37:17.923Z,57.6684
2019-04-29T11:38:22.316Z,58.7259
2019-04-29T11:39:25.334Z,61.0239
2019-04-29T11:40:42.756Z,61.1734
2019-04-29T11:41:36.320Z,60.7706
2019-04-29T11:42:41.680Z,61.7197
2019-04-29T11:43:46.600Z,62.0905
2019-04-29T11:44:57.149Z,62.7253
2019-04-29T11:46:01.343Z,61.9532
2019-04-29T11:47:04.314Z,63.1434
2019-04-29T11:48:07.308Z,63.0426
2019-04-29T11:49:10.315Z,61.3565
2019-04-29T11:50:14.346Z,62.0157
2019-04-29T11:51:17.353Z,62.3133
2019-04-29T11:52:23.787Z,64.8737
2019-04-29T11:53:28.332Z,62.2400
2019-04-29T11:54:31.319Z,61.3443
2019-04-29T11:55:34.309Z,62.0844
2019-04-29T11:56:39.585Z,62.4094
2019-04-29T11:57:43.349Z,62.0951
2019-04-29T11:58:46.300Z,62.2232
2019-04-29T11:59:49.305Z,63.2258
2019-04-29T12:00:52.331Z,62.3560
2019-04-29T12:01:55.293Z,62.4506
2019-04-29T12:02:58.353Z,63.2120
2019-04-29T12:04:01.383Z,62.2995
2019-04-29T12:05:08.192Z,61.6587
2019-04-29T12:06:16.351Z,62.9862
2019-04-29T12:07:21.202Z,63.8117
2019-04-29T12:08:24.335Z,63.4623
2019-04-29T12:09:30.866Z,62.2370
2019-04-29T12:10:39.258Z,63.2349
2019-04-29T12:11:43.359Z,64.1276
2019-04-29T12:12:47.717Z,63.7385
2019-04-29T12:13:52.313Z,63.2303
2019-04-29T12:14:55.301Z,63.5447
2019-04-29T12:15:59.338Z,63.7293
2019-04-29T12:17:02.393Z,63.9384
2019-04-29T12:18:05.283Z,63.6728
2019-04-29T12:19:08.314Z,63.6774
2019-04-29T12:20:10.352Z,63.3433
2019-04-29T12:21:13.310Z,62.8534
2019-04-29T12:22:28.190Z,63.9307
2019-04-29T12:23:24.331Z,63.2883
2019-04-29T12:24:26.330Z,62.4796
2019-04-29T12:25:29.413Z,63.6011
2019-04-29T12:26:35.012Z,64.5197
2019-04-29T12:27:40.336Z,64.7257
2019-04-29T12:28:44.525Z,62.8214
2019-04-29T12:29:48.737Z,63.0640
2019-04-29T12:30:55.345Z,63.7140
2019-04-29T12:31:58.326Z,63.4546
2019-04-29T12:33:03.115Z,64.8463
2019-04-29T12:34:06.278Z,64.9546
2019-04-29T12:35:09.346Z,64.5853
2019-04-29T12:36:12.291Z,63.0610
2019-04-29T12:37:15.284Z,64.3290
2019-04-29T12:38:18.369Z,63.7232
2019-04-29T12:39:42.264Z,64.0406
2019-04-29T12:40:29.282Z,63.3448
2019-04-29T12:41:32.418Z,65.2720
2019-04-29T12:42:35.719Z,63.5828
2019-04-29T12:43:43.354Z,62.4704
2019-04-29T12:44:46.382Z,62.5757
2019-04-29T12:45:49.334Z,63.5370
2019-04-29T12:46:52.322Z,63.6606
2019-04-29T12:47:55.335Z,64.8692
2019-04-29T12:48:58.339Z,63.1022